West Springfield, MA (01090)

6:16 AM EST on December 19, 2014 (GMT -0500)
Amostown Rd | Change Station
CLOSE
Current Station
Personal Weather Station
Location: West Springfield, MA
Elevation: 205 ft
Nearby Weather Stations

Elev 205 ft 42.12 °N, 72.64 °W | Updated 15 seconds ago

Overcast
Overcast
32.5 °F
Feels Like 27 °F
N
6.0
Wind Variable Wind from NW

Today
High -- | Low -- °F
--% Chance of Precip.
Yesterday
High -- | Low -- °F
Precip. -- in
7:14 AM 4:20 PM
Waning Crescent, 8% visible
Pressure 29.94 in
Visibility 10.0 miles
Clouds Overcast 4200 ft
Windchill 27 °F
Dew Point 22 °F
Humidity 66%
Rainfall 0.00 in
Snow Depth Not available.
UV 0 out of 12
Pollen .10 out of 12
Air Quality Not available.
Flu Activity Not available.
METAR KBAF 191053Z 30014KT 10SM OVC042 01/M06 A2992 RMK AO2 SLP139 T00061061

More Conditions Fewer Conditions

Pressure 29.94 in
Visibility 10.0 miles
Clouds Overcast 4200 ft
Windchill 27 °F
Dew Point 22 °F
Humidity 66%
Rainfall 0.00 in
Snow Depth Not available.
UV 0 out of 12
Pollen .10 out of 12
Air Quality Not available.
Flu Activity Not available.
METAR KBAF 191053Z 30014KT 10SM OVC042 01/M06 A2992 RMK AO2 SLP139 T00061061

More Conditions Fewer Conditions

10-Day Weather Forecast

Almanac

Astronomy

Dec. 19, 2014 Rise Set
Actual Time
Civil Twilight
Nautical Twilight
Astronomical Twilight
Moon
Length of Visible Light
Length of Day
Tomorrow will be .
, % of the Moon is Illuminated

Today's Extremes

State Highs State Lows

Community

WunderPhotos

Upload Photos

1,778,965 photos uploaded!

WunderBlogs® & News

Nearby

Air Quality

  Air Quality AQ Index Pollutant
Not available.

Snow Depth

Station Depth Elevation

Earthquake Activity

City Distance Mag. Time & Date
Minimum magnitude displayed is 2.5.

Coastal Water Temperatures

Place Temperature

Nearby Weather Stations